METAR AND TAF INFORMATION
METAR FOR SBBU
ADDS - METARS form results

(1410 UTC 22 April 2018)
Data provider http://aviationweather.gov/adds/metars/
 
Forecast for: SBBU (BAURU , BR)
Text: TAF SBBU 220900Z 2212/2224 10007KT CAVOK TN23/2212Z TX31/2218Z RMK PDJ
Forecast period: 1200 UTC 22 April 2018 to 0000 UTC 23 April 2018
Forecast type: FROM: standard forecast or significant change
Winds: from the E (100 degrees) at 8 MPH (7 knots; 3.6 m/s)
Visibility: 6 or more miles (10+ km)
Clouds: not forecast
Weather: no significant weather forecast for this period
Forecast for: SBBU (BAURU , BR)
Text: TAF SBBU 220900Z 2212/2224 10007KT CAVOK TN23/2212Z TX31/2218Z RMK PDJ
Forecast period: 1200 UTC 22 April 2018 to 0000 UTC 23 April 2018
Forecast type: FROM: standard forecast or significant change
Winds: from the E (100 degrees) at 8 MPH (7 knots; 3.6 m/s)
Visibility: 6 or more miles (10+ km)
Clouds: not forecast
Weather: no significant weather forecast for this period

 AIRPORT MAP

 RUNWAY INFORMATION
Runway 14 Runway length 4925 ft Runway width 115 ft
Runway elevation 0 ft Runway displaced threshold 0 ft Runway heading 0
Runway 32 Runway length 4925 ft Runway width 115 ft
Runway elevation 0 ft Runway displaced threshold 0 ft Runway heading 0

 AIRPORT FREQUENCIES
Type AFIS Name RDO Frequency 121.3 MHZ
Type APP Name APP Frequency 121.3 MHZ
Type ATIS Name ATIS Frequency 127.875 MHZ

 AIRPORT NEAR NAVIGATION AIDS
Type NDB Name Bauru Frequency 380 KHZ



Powered by Virtual Airlines Manager [v2.6.2]